createdAt,value
2019-04-04T00:02:14.172Z,12.60
2019-04-04T00:04:43.843Z,12.50
2019-04-04T00:07:15.129Z,12.40
2019-04-04T00:09:44.798Z,12.20
2019-04-04T00:12:15.422Z,12.10
2019-04-04T00:14:44.332Z,12.00
2019-04-04T00:17:13.913Z,11.80
2019-04-04T00:19:43.581Z,11.70
2019-04-04T00:22:14.250Z,11.60
2019-04-04T00:24:43.925Z,11.50
2019-04-04T00:27:13.861Z,11.40
2019-04-04T00:29:43.521Z,11.30
2019-04-04T00:32:13.255Z,11.20
2019-04-04T00:34:42.939Z,11.20
2019-04-04T00:37:12.611Z,11.10
2019-04-04T00:39:42.271Z,11.10
2019-04-04T00:42:11.946Z,11.10
2019-04-04T00:44:41.610Z,11.10
2019-04-04T00:47:11.248Z,11.00
2019-04-04T00:49:40.908Z,11.00
2019-04-04T00:52:10.951Z,11.00
2019-04-04T00:54:40.610Z,11.00
2019-04-04T00:57:10.272Z,10.90
2019-04-04T00:59:39.942Z,10.90
2019-04-04T01:02:09.720Z,10.90
2019-04-04T01:04:39.397Z,10.90
2019-04-04T01:07:09.026Z,10.80
2019-04-04T01:09:39.693Z,10.80
2019-04-04T01:12:09.456Z,10.80
2019-04-04T01:14:39.158Z,10.80
2019-04-04T01:17:09.439Z,10.80
2019-04-04T01:19:39.100Z,10.80
2019-04-04T01:22:08.759Z,10.80
2019-04-04T01:24:38.424Z,10.70
2019-04-04T01:27:08.066Z,10.70
2019-04-04T01:29:38.983Z,10.70
2019-04-04T01:32:09.011Z,10.60
2019-04-04T01:34:52.130Z,10.60
2019-04-04T01:37:22.130Z,10.60
2019-04-04T01:39:51.892Z,10.60
2019-04-04T01:42:21.597Z,10.50
2019-04-04T01:44:51.337Z,10.50
2019-04-04T01:47:21.018Z,10.50
2019-04-04T01:49:51.871Z,10.40
2019-04-04T01:52:22.157Z,10.30
2019-04-04T01:54:51.819Z,10.30
2019-04-04T01:57:21.604Z,10.20
2019-04-04T01:59:51.259Z,10.10
2019-04-04T02:02:21.053Z,9.90
2019-04-04T02:04:50.701Z,9.80
2019-04-04T02:07:20.366Z,9.70
2019-04-04T02:09:52.753Z,9.70
2019-04-04T02:12:22.483Z,9.50
2019-04-04T02:14:53.725Z,9.50
2019-04-04T02:17:23.463Z,9.50
2019-04-04T02:19:55.595Z,9.40
2019-04-04T02:22:24.517Z,9.30
2019-04-04T02:24:54.152Z,9.30
2019-04-04T02:27:40.509Z,9.30
2019-04-04T02:30:14.672Z,9.30
2019-04-04T02:32:59.314Z,9.30
2019-04-04T02:35:31.702Z,9.40
2019-04-04T02:38:11.857Z,9.40
2019-04-04T02:40:44.024Z,9.40
2019-04-04T02:43:13.683Z,9.40
2019-04-04T02:45:50.619Z,9.40
2019-04-04T02:48:23.352Z,9.40
2019-04-04T02:51:02.195Z,9.40
2019-04-04T02:53:32.014Z,9.30
2019-04-04T02:56:03.294Z,9.30
2019-04-04T02:59:11.975Z,9.30
2019-04-04T03:01:49.185Z,9.20
2019-04-04T03:04:20.443Z,9.20
2019-04-04T03:06:50.204Z,9.20
2019-04-04T03:09:22.589Z,9.20
2019-04-04T03:11:58.280Z,9.10
2019-04-04T03:14:42.784Z,9.10
2019-04-04T03:17:12.449Z,9.10
2019-04-04T03:19:43.800Z,9.20
2019-04-04T03:22:27.588Z,9.10
2019-04-04T03:25:01.224Z,9.10
2019-04-04T03:27:30.864Z,9.10
2019-04-04T03:30:13.176Z,9.10
2019-04-04T03:32:41.661Z,9.10
2019-04-04T03:35:15.374Z,9.10
2019-04-04T03:37:46.363Z,9.10
2019-04-04T03:40:16.242Z,9.10
2019-04-04T03:43:02.279Z,9.10
2019-04-04T03:45:35.121Z,9.10
2019-04-04T03:48:17.586Z,9.10
2019-04-04T03:50:48.470Z,9.10
2019-04-04T03:53:21.266Z,9.10
2019-04-04T03:55:51.034Z,9.10
2019-04-04T03:58:28.046Z,9.10
2019-04-04T04:01:03.710Z,9.10
2019-04-04T04:03:39.155Z,9.00
2019-04-04T04:06:09.613Z,9.00
2019-04-04T04:08:39.400Z,9.00
2019-04-04T04:11:08.870Z,9.00
2019-04-04T04:13:38.629Z,9.00
2019-04-04T04:16:07.949Z,9.00
2019-04-04T04:18:37.293Z,8.90
2019-04-04T04:21:09.719Z,9.00
2019-04-04T04:23:37.681Z,8.90
2019-04-04T04:26:09.385Z,8.90
2019-04-04T04:28:38.036Z,8.90
2019-04-04T04:31:07.465Z,9.00
2019-04-04T04:33:36.922Z,9.00
2019-04-04T04:36:09.512Z,9.00
2019-04-04T04:38:37.346Z,9.00
2019-04-04T04:41:06.735Z,9.00
2019-04-04T04:43:36.124Z,9.00
2019-04-04T04:46:05.466Z,9.00
2019-04-04T04:48:34.850Z,9.10
2019-04-04T04:51:04.243Z,9.10
2019-04-04T04:53:33.706Z,9.10
2019-04-04T04:56:03.123Z,9.10
2019-04-04T04:58:32.616Z,9.10
2019-04-04T05:01:02.080Z,9.10
2019-04-04T05:03:31.419Z,9.10
2019-04-04T05:06:02.657Z,9.20
2019-04-04T05:08:31.835Z,9.20
2019-04-04T05:11:01.219Z,9.20
2019-04-04T05:13:30.595Z,9.30
2019-04-04T05:16:00.028Z,9.30
2019-04-04T05:18:29.486Z,9.30
2019-04-04T05:21:01.464Z,9.40
2019-04-04T05:23:29.901Z,9.40
2019-04-04T05:26:02.261Z,9.50
2019-04-04T05:28:42.749Z,9.50
2019-04-04T05:31:12.141Z,9.70
2019-04-04T05:33:41.520Z,9.80
2019-04-04T05:36:10.968Z,9.90
2019-04-04T05:38:42.756Z,10.00
2019-04-04T05:41:11.393Z,10.10
2019-04-04T05:43:53.510Z,10.20
2019-04-04T05:46:22.927Z,10.30
2019-04-04T05:48:52.272Z,10.40
2019-04-04T05:51:21.849Z,10.50
2019-04-04T05:53:51.349Z,10.60
2019-04-04T05:56:26.392Z,10.80
2019-04-04T05:58:57.046Z,10.90
2019-04-04T06:01:26.486Z,11.00
2019-04-04T06:03:55.845Z,11.10
2019-04-04T06:06:25.215Z,11.20
2019-04-04T06:08:54.593Z,11.40
2019-04-04T06:11:24.029Z,11.50
2019-04-04T06:13:53.480Z,11.70
2019-04-04T06:19:05.397Z,11.90
2019-04-04T06:21:34.975Z,12.10
2019-04-04T06:24:29.709Z,12.30
2019-04-04T06:27:09.144Z,12.40
2019-04-04T06:29:38.478Z,12.60
2019-04-04T06:32:07.909Z,12.80
2019-04-04T06:34:37.373Z,12.90
2019-04-04T06:37:06.765Z,13.10
2019-04-04T06:39:36.210Z,13.20
2019-04-04T06:42:14.633Z,13.30
2019-04-04T06:44:45.261Z,13.40
2019-04-04T06:47:16.535Z,13.50
2019-04-04T06:49:46.132Z,13.60
2019-04-04T06:52:16.252Z,13.70
2019-04-04T06:54:46.609Z,13.90
2019-04-04T06:57:15.985Z,13.90
2019-04-04T06:59:45.381Z,14.00
2019-04-04T07:02:14.786Z,14.10
2019-04-04T07:04:44.173Z,14.20
2019-04-04T07:07:13.634Z,14.30
2019-04-04T07:09:55.940Z,14.30
2019-04-04T07:12:28.415Z,14.40
2019-04-04T07:14:56.391Z,14.50
2019-04-04T07:17:25.797Z,14.60
2019-04-04T07:19:55.153Z,14.60
2019-04-04T07:22:24.968Z,14.70
2019-04-04T07:24:54.906Z,14.70
2019-04-04T07:27:24.299Z,14.80
2019-04-04T07:29:56.596Z,14.80
2019-04-04T07:32:24.742Z,14.80
2019-04-04T07:34:54.129Z,14.90
2019-04-04T07:37:23.494Z,15.00
2019-04-04T07:39:52.954Z,15.00
2019-04-04T07:42:22.363Z,15.00
2019-04-04T07:44:54.406Z,15.10
2019-04-04T07:47:22.755Z,15.20
2019-04-04T07:49:53.154Z,15.30
2019-04-04T07:52:23.142Z,15.40
2019-04-04T07:54:52.529Z,15.40
2019-04-04T07:57:21.906Z,15.50
2019-04-04T07:59:51.426Z,15.60
2019-04-04T08:02:20.801Z,15.60
2019-04-04T08:04:50.199Z,15.70
2019-04-04T08:07:20.657Z,15.80
2019-04-04T08:09:50.040Z,15.80
2019-04-04T08:12:19.482Z,16.00
2019-04-04T08:15:08.375Z,16.00
2019-04-04T08:17:37.756Z,16.10
2019-04-04T08:20:07.188Z,16.20
2019-04-04T08:22:39.536Z,16.20
2019-04-04T08:25:07.684Z,16.30
2019-04-04T08:27:37.447Z,16.40
2019-04-04T08:30:07.743Z,16.50
2019-04-04T08:32:37.164Z,16.60
2019-04-04T08:35:07.426Z,16.60
2019-04-04T08:37:36.877Z,16.60
2019-04-04T08:40:07.619Z,16.70
2019-04-04T08:42:37.101Z,16.70
2019-04-04T08:45:07.292Z,16.80
2019-04-04T08:47:36.809Z,16.90
2019-04-04T08:50:06.364Z,16.90
2019-04-04T08:52:35.770Z,17.00
2019-04-04T08:55:06.729Z,17.10
2019-04-04T08:57:36.193Z,17.20
2019-04-04T09:00:10.151Z,17.20
2019-04-04T09:02:41.296Z,17.20
2019-04-04T09:05:12.601Z,17.20
2019-04-04T09:07:42.258Z,17.30
2019-04-04T09:10:11.684Z,17.30
2019-04-04T09:12:41.103Z,17.30
2019-04-04T09:15:11.563Z,17.30
2019-04-04T09:17:40.980Z,17.40
2019-04-04T09:20:10.353Z,17.40
2019-04-04T09:22:40.795Z,17.50
2019-04-04T09:25:10.868Z,17.50
2019-04-04T09:27:40.518Z,17.60
2019-04-04T09:30:09.942Z,17.60
2019-04-04T09:32:39.401Z,17.70
2019-04-04T09:35:08.800Z,17.80
2019-04-04T09:37:38.240Z,17.90
2019-04-04T09:40:07.694Z,18.00
2019-04-04T09:42:37.139Z,18.00
2019-04-04T09:45:09.681Z,18.10
2019-04-04T09:47:39.141Z,18.10
2019-04-04T09:50:08.717Z,18.10
2019-04-04T09:52:38.407Z,18.20
2019-04-04T09:55:08.412Z,18.30
2019-04-04T09:57:37.802Z,18.30
2019-04-04T10:00:14.456Z,18.40
2019-04-04T10:02:43.909Z,18.40
2019-04-04T10:05:13.576Z,18.50
2019-04-04T10:07:43.035Z,18.50
2019-04-04T10:13:12.365Z,18.60
2019-04-04T10:18:48.885Z,18.70
2019-04-04T10:21:18.263Z,18.80
2019-04-04T10:23:47.693Z,18.80
2019-04-04T10:26:17.150Z,19.00
2019-04-04T10:28:46.558Z,19.00
2019-04-04T10:31:16.031Z,19.10
2019-04-04T10:33:45.419Z,19.20
2019-04-04T10:36:14.801Z,19.20
2019-04-04T10:38:44.357Z,19.30
2019-04-04T10:41:13.788Z,19.30
2019-04-04T10:43:43.235Z,19.30
2019-04-04T10:46:12.607Z,19.30
2019-04-04T10:48:42.105Z,19.30
2019-04-04T10:51:11.544Z,19.40
2019-04-04T10:53:41.924Z,19.50
2019-04-04T10:56:11.362Z,19.50
2019-04-04T10:58:40.834Z,19.50
2019-04-04T11:01:10.229Z,19.60
2019-04-04T11:03:39.617Z,19.60
2019-04-04T11:06:09.008Z,19.60
2019-04-04T11:08:38.462Z,19.70
2019-04-04T11:11:07.918Z,19.80
2019-04-04T11:13:37.312Z,19.80
2019-04-04T11:16:29.500Z,19.90
2019-04-04T11:18:53.846Z,20.00
2019-04-04T11:21:24.045Z,20.10
2019-04-04T11:23:55.456Z,20.20
2019-04-04T11:26:30.462Z,20.30
2019-04-04T11:29:00.450Z,20.40
2019-04-04T11:31:39.093Z,20.50
2019-04-04T11:34:09.563Z,20.60
2019-04-04T11:36:39.028Z,20.60
2019-04-04T11:39:10.828Z,20.60
2019-04-04T11:41:44.134Z,20.70
2019-04-04T11:44:16.830Z,20.70
2019-04-04T11:46:50.895Z,20.70
2019-04-04T11:49:20.588Z,20.80
2019-04-04T11:52:00.193Z,20.80
2019-04-04T11:54:40.530Z,20.80
2019-04-04T11:57:10.296Z,20.80
2019-04-04T11:59:47.758Z,20.80
2019-04-04T12:02:17.301Z,20.90
2019-04-04T12:04:46.834Z,20.90
2019-04-04T12:07:16.277Z,21.00
2019-04-04T12:10:07.376Z,21.10
2019-04-04T12:12:30.481Z,21.20
2019-04-04T12:15:00.500Z,21.20
2019-04-04T12:17:30.017Z,21.30
2019-04-04T12:19:59.554Z,21.20
2019-04-04T12:22:29.221Z,21.20
2019-04-04T12:24:58.753Z,21.10
2019-04-04T12:27:28.250Z,21.00
2019-04-04T12:29:57.866Z,21.00
2019-04-04T12:32:27.664Z,21.00
2019-04-04T12:34:57.176Z,21.10
2019-04-04T12:37:26.785Z,21.10
2019-04-04T12:39:56.442Z,21.30
2019-04-04T12:42:25.985Z,21.50
2019-04-04T12:44:55.560Z,21.60
2019-04-04T12:47:24.937Z,21.80
2019-04-04T12:49:54.438Z,22.00
2019-04-04T12:52:25.097Z,22.20
2019-04-04T12:54:54.548Z,22.40
2019-04-04T12:57:24.213Z,22.60
2019-04-04T12:59:53.726Z,22.70
2019-04-04T13:02:23.103Z,22.90
2019-04-04T13:04:52.483Z,23.00
2019-04-04T13:07:21.829Z,23.10
2019-04-04T13:09:51.292Z,23.20
2019-04-04T13:12:20.662Z,23.30
2019-04-04T13:14:50.159Z,23.50
2019-04-04T13:17:19.598Z,23.60
2019-04-04T13:19:48.983Z,23.70
2019-04-04T13:22:18.375Z,23.90
2019-04-04T13:24:47.756Z,23.90
2019-04-04T13:27:17.951Z,23.90
2019-04-04T13:29:47.471Z,23.90
2019-04-04T13:32:16.831Z,23.90
2019-04-04T13:34:58.369Z,23.90
2019-04-04T13:37:17.404Z,23.90
2019-04-04T13:40:06.216Z,24.00
2019-04-04T13:42:35.607Z,24.10
2019-04-04T13:45:06.245Z,24.10
2019-04-04T13:47:38.243Z,24.20
2019-04-04T13:50:07.909Z,24.20
2019-04-04T13:52:37.286Z,24.30
2019-04-04T13:55:06.888Z,24.30
2019-04-04T13:57:39.157Z,24.20
2019-04-04T14:00:08.607Z,24.10
2019-04-04T14:02:38.067Z,24.20
2019-04-04T14:05:10.586Z,24.10
2019-04-04T14:07:38.895Z,24.10
2019-04-04T14:10:08.266Z,23.90
2019-04-04T14:12:38.323Z,23.90
2019-04-04T14:15:21.667Z,23.90
2019-04-04T14:17:51.150Z,23.90
2019-04-04T14:20:20.529Z,23.90
2019-04-04T14:22:51.169Z,23.80
2019-04-04T14:25:20.905Z,23.70
2019-04-04T14:27:50.915Z,23.60
2019-04-04T14:30:20.390Z,23.50
2019-04-04T14:32:49.860Z,23.40
2019-04-04T14:35:40.334Z,23.30
2019-04-04T14:38:15.749Z,23.20
2019-04-04T14:41:11.621Z,23.10
2019-04-04T14:46:39.181Z,22.80
2019-04-04T14:49:08.189Z,22.50
2019-04-04T14:51:37.577Z,22.30
2019-04-04T14:54:06.962Z,21.90
2019-04-04T14:56:36.419Z,21.50
2019-04-04T14:59:05.855Z,21.20
2019-04-04T15:01:35.460Z,20.90
2019-04-04T15:04:04.869Z,20.70
2019-04-04T15:06:36.082Z,20.60
2019-04-04T15:09:07.524Z,20.50
2019-04-04T15:11:37.393Z,20.40
2019-04-04T15:14:08.064Z,20.30
2019-04-04T15:16:37.835Z,20.10
2019-04-04T15:19:07.541Z,19.90
2019-04-04T15:21:38.373Z,19.80
2019-04-04T15:24:07.970Z,19.70
2019-04-04T15:26:42.271Z,19.60
2019-04-04T15:29:12.287Z,19.50
2019-04-04T15:31:41.923Z,19.40
2019-04-04T15:34:11.956Z,19.30
2019-04-04T15:36:46.982Z,19.20
2019-04-04T15:39:16.431Z,19.20
2019-04-04T15:41:46.047Z,19.10
2019-04-04T15:44:15.687Z,19.10
2019-04-04T15:46:45.289Z,19.10
2019-04-04T15:49:14.967Z,19.10
2019-04-04T15:51:44.428Z,19.10
2019-04-04T15:54:14.075Z,19.00
2019-04-04T15:56:47.214Z,19.00
2019-04-04T15:59:18.494Z,19.00
2019-04-04T16:01:49.866Z,18.90
2019-04-04T16:04:19.698Z,18.90
2019-04-04T16:06:49.210Z,18.90
2019-04-04T16:09:22.848Z,18.80
2019-04-04T16:12:00.331Z,18.80
2019-04-04T16:14:33.703Z,18.70
2019-04-04T16:17:05.159Z,18.70
2019-04-04T16:19:35.434Z,18.60
2019-04-04T16:22:07.940Z,18.60
2019-04-04T16:24:37.497Z,18.60
2019-04-04T16:27:06.950Z,18.50
2019-04-04T16:29:59.535Z,18.50
2019-04-04T16:32:31.144Z,18.50
2019-04-04T16:35:00.827Z,18.50
2019-04-04T16:37:37.515Z,18.50
2019-04-04T16:40:09.487Z,18.50
2019-04-04T16:42:39.201Z,18.50
2019-04-04T16:45:08.752Z,18.40
2019-04-04T16:47:38.238Z,18.40
2019-04-04T16:50:07.807Z,18.40
2019-04-04T16:52:37.438Z,18.30
2019-04-04T16:55:07.037Z,18.20
2019-04-04T16:57:36.689Z,18.10
2019-04-04T17:00:08.596Z,18.00
2019-04-04T17:02:38.037Z,18.00
2019-04-04T17:05:10.652Z,17.90
2019-04-04T17:07:38.614Z,17.80
2019-04-04T17:10:08.528Z,17.70
2019-04-04T17:12:37.972Z,17.70
2019-04-04T17:15:07.835Z,17.60
2019-04-04T17:17:37.398Z,17.50
2019-04-04T17:20:07.152Z,17.40
2019-04-04T17:22:38.334Z,17.40
2019-04-04T17:25:07.856Z,17.30
2019-04-04T17:27:37.389Z,17.20
2019-04-04T17:30:06.965Z,17.20
2019-04-04T17:32:36.557Z,17.20
2019-04-04T17:35:08.972Z,17.10
2019-04-04T17:37:39.100Z,17.00
2019-04-04T17:40:10.021Z,16.90
2019-04-04T17:42:39.457Z,16.90
2019-04-04T17:45:09.414Z,16.80
2019-04-04T17:47:39.104Z,16.70
2019-04-04T17:50:10.779Z,16.70
2019-04-04T17:52:40.325Z,16.60
2019-04-04T17:55:09.779Z,16.60
2019-04-04T17:57:39.750Z,16.50
2019-04-04T18:00:10.150Z,16.40
2019-04-04T18:02:39.717Z,16.40
2019-04-04T18:05:10.855Z,16.40
2019-04-04T18:07:40.294Z,16.30
2019-04-04T18:10:09.921Z,16.30
2019-04-04T18:12:40.723Z,16.30
2019-04-04T18:15:10.580Z,16.30
2019-04-04T18:17:40.032Z,16.20
2019-04-04T18:20:09.600Z,16.20
2019-04-04T18:22:39.048Z,16.10
2019-04-04T18:25:08.486Z,16.10
2019-04-04T18:27:37.955Z,16.10
2019-04-04T18:30:10.192Z,16.10
2019-04-04T18:32:39.693Z,16.10
2019-04-04T18:35:16.116Z,16.10
2019-04-04T18:37:54.114Z,16.10
2019-04-04T18:40:25.654Z,16.00
2019-04-04T18:42:55.208Z,16.00
2019-04-04T18:45:24.568Z,16.00
2019-04-04T18:47:54.047Z,16.00
2019-04-04T18:50:23.586Z,16.00
2019-04-04T18:52:52.962Z,16.00
2019-04-04T18:55:22.355Z,16.00
2019-04-04T18:57:51.739Z,15.90
2019-04-04T19:00:21.147Z,16.00
2019-04-04T19:02:50.548Z,15.90
2019-04-04T19:05:19.934Z,15.90
2019-04-04T19:07:49.391Z,15.90
2019-04-04T19:10:18.758Z,15.90
2019-04-04T19:12:48.201Z,15.90
2019-04-04T19:15:17.559Z,15.90
2019-04-04T19:17:46.939Z,15.80
2019-04-04T19:20:16.333Z,15.80
2019-04-04T19:22:45.693Z,15.80
2019-04-04T19:25:15.074Z,15.80
2019-04-04T19:27:44.430Z,15.80
2019-04-04T19:30:14.892Z,15.70
2019-04-04T19:32:44.353Z,15.70
2019-04-04T19:35:13.858Z,15.70
2019-04-04T19:37:43.251Z,15.70
2019-04-04T19:40:12.618Z,15.70
2019-04-04T19:42:42.096Z,15.70
2019-04-04T19:45:11.525Z,15.70
2019-04-04T19:47:40.958Z,15.70
2019-04-04T19:50:10.609Z,15.70
2019-04-04T19:52:40.957Z,15.70
2019-04-04T19:55:10.425Z,15.70
2019-04-04T19:57:40.158Z,15.70
2019-04-04T20:00:10.499Z,15.80
2019-04-04T20:02:39.263Z,15.70
2019-04-04T20:05:08.568Z,15.70
2019-04-04T20:07:39.038Z,15.70
2019-04-04T20:10:09.730Z,15.70
2019-04-04T20:12:39.207Z,15.70
2019-04-04T20:15:08.830Z,15.80
2019-04-04T20:17:39.250Z,15.80
2019-04-04T20:20:08.712Z,15.80
2019-04-04T20:22:38.070Z,15.80
2019-04-04T20:25:07.462Z,15.80
2019-04-04T20:27:36.818Z,15.90
2019-04-04T20:30:08.054Z,15.80
2019-04-04T20:32:37.608Z,15.80
2019-04-04T20:35:07.654Z,15.90
2019-04-04T20:37:37.043Z,15.80
2019-04-04T20:40:06.574Z,15.80
2019-04-04T20:42:36.022Z,15.80
2019-04-04T20:45:05.833Z,15.80
2019-04-04T20:47:35.373Z,15.80
2019-04-04T20:50:06.418Z,15.80
2019-04-04T20:52:36.213Z,15.80
2019-04-04T20:55:06.325Z,15.70
2019-04-04T20:57:35.694Z,15.70
2019-04-04T21:00:06.719Z,15.70
2019-04-04T21:02:36.255Z,15.70
2019-04-04T21:05:08.701Z,15.70
2019-04-04T21:07:38.267Z,15.70
2019-04-04T21:10:07.657Z,15.70
2019-04-04T21:12:37.026Z,15.60
2019-04-04T21:15:06.995Z,15.60
2019-04-04T21:17:36.459Z,15.60
2019-04-04T21:20:08.547Z,15.60
2019-04-04T21:22:37.928Z,15.60
2019-04-04T21:25:07.296Z,15.60
2019-04-04T21:27:36.761Z,15.60
2019-04-04T21:30:07.518Z,15.50
2019-04-04T21:32:36.943Z,15.50
2019-04-04T21:35:07.417Z,15.50
2019-04-04T21:37:37.251Z,15.50
2019-04-04T21:40:06.927Z,15.50
2019-04-04T21:42:36.291Z,15.40
2019-04-04T21:45:06.826Z,15.40
2019-04-04T21:47:35.904Z,15.30
2019-04-04T21:50:06.448Z,15.30
2019-04-04T21:52:36.684Z,15.30
2019-04-04T21:55:06.521Z,15.20
2019-04-04T21:57:35.922Z,15.20
2019-04-04T22:00:05.726Z,15.10
2019-04-04T22:02:56.155Z,15.10
2019-04-04T22:05:25.545Z,15.00
2019-04-04T22:07:54.906Z,15.00
2019-04-04T22:10:24.365Z,15.00
2019-04-04T22:12:54.006Z,15.00
2019-04-04T22:15:23.673Z,14.90
2019-04-04T22:17:53.329Z,14.90
2019-04-04T22:20:22.999Z,14.90
2019-04-04T22:22:52.666Z,14.80
2019-04-04T22:25:22.313Z,14.80
2019-04-04T22:27:51.981Z,14.80
2019-04-04T22:30:21.657Z,14.70
2019-04-04T22:32:51.278Z,14.70
2019-04-04T22:35:20.953Z,14.70
2019-04-04T22:37:50.645Z,14.60
2019-04-04T22:40:20.310Z,14.70
2019-04-04T22:49:16.233Z,14.50
2019-04-04T22:51:45.898Z,14.50
2019-04-04T22:54:15.653Z,14.50
2019-04-04T22:56:45.421Z,14.40
2019-04-04T22:59:15.106Z,14.40
2019-04-04T23:01:44.769Z,14.30
2019-04-04T23:04:14.435Z,14.20
2019-04-04T23:06:44.093Z,14.20
2019-04-04T23:09:13.770Z,14.10
2019-04-04T23:11:43.411Z,14.10
2019-04-04T23:14:13.072Z,14.00
2019-04-04T23:16:42.806Z,14.00
2019-04-04T23:19:12.534Z,14.00
2019-04-04T23:21:42.195Z,14.00
2019-04-04T23:24:31.240Z,14.00
2019-04-04T23:27:00.927Z,14.00
2019-04-04T23:29:30.537Z,13.90
2019-04-04T23:32:10.699Z,13.90
2019-04-04T23:34:40.368Z,14.00
2019-04-04T23:37:10.037Z,14.00
2019-04-04T23:39:39.715Z,14.00
2019-04-04T23:42:09.372Z,14.00
2019-04-04T23:44:39.043Z,14.00
2019-04-04T23:47:08.698Z,14.00
2019-04-04T23:49:39.656Z,14.10
2019-04-04T23:52:09.303Z,14.10
2019-04-04T23:54:38.982Z,14.20
2019-04-04T23:57:08.429Z,14.20
2019-04-04T23:59:37.863Z,14.20
